Time;durP1;ratioP1;P1;durP2;ratioP2;P2;SDS_P1;SDS_P2;PMS_P1;PMS_P2;Temp;Humidity;BMP_temperature;BMP_pressure;BME280_temperature;BME280_humidity;BME280_pressure;Samples;Min_cycle;Max_cycle;Signal;HPM_P1;HPM_P2
2022/09/01 00:00:27;;;;;;;;;;;17.90;62.90;;;13.79;96.21;95664.25;4955767;28;19916;-46
2022/09/01 00:02:56;;;;;;;;;;;17.90;62.90;;;13.77;96.30;95661.81;4971756;28;19917;-46
2022/09/01 00:05:22;;;;;;;;;;;17.90;63.00;;;13.77;96.12;95664.50;4955451;28;19932;-47
2022/09/01 00:07:49;;;;;;;;;;;17.90;63.00;;;13.77;95.53;95667.19;4954752;28;19913;-48
2022/09/01 00:10:15;;;;;;;;;;;17.90;63.00;;;13.73;95.86;95668.84;4972338;28;19956;-47
2022/09/01 00:12:44;;;;;;;;;;;17.80;62.90;;;13.71;95.90;95670.19;4954491;28;19917;-45
2022/09/01 00:15:12;;;;;;;;;;;17.80;63.00;;;13.65;96.36;95664.88;4939905;28;19917;-46
2022/09/01 00:17:38;;;;;;;;;;;17.80;63.00;;;13.63;96.62;95667.06;4954610;28;19916;-52
2022/09/01 00:20:05;;;;;;;;;;;17.70;63.00;;;13.62;96.08;95662.75;4966926;28;20312;-46
2022/09/01 00:22:37;;;;;;;;;;;17.70;63.00;;;13.56;95.71;95671.13;4953880;28;20369;-45
2022/09/01 00:25:12;;;;;;;;;;;17.70;63.00;;;13.51;95.67;95668.50;4968013;28;19917;-46
2022/09/01 00:27:37;;;;;;;;;;;17.70;63.00;;;13.46;95.32;95674.69;4955020;28;19916;-46
2022/09/01 00:30:07;;;;;;;;;;;17.60;63.00;;;13.39;95.85;95668.84;4955112;28;19917;-45
2022/09/01 00:32:33;;;;;;;;;;;17.60;63.00;;;13.34;96.81;95668.88;4954157;28;19919;-45
2022/09/01 00:34:59;;;;;;;;;;;17.60;63.10;;;13.30;96.18;95665.97;4954663;28;20280;-45
2022/09/01 00:37:25;;;;;;;;;;;17.50;63.10;;;13.25;95.71;95670.56;4954896;28;19916;-45
2022/09/01 00:39:53;;;;;;;;;;;17.50;63.10;;;13.19;96.30;95662.56;4953362;28;19921;-48
2022/09/01 00:42:25;;;;;;;;;;;17.40;63.10;;;13.14;97.04;95659.13;4955954;28;20341;-45
2022/09/01 00:44:51;;;;;;;;;;;17.40;63.10;;;13.11;97.46;95660.47;4968284;28;19948;-47
2022/09/01 00:47:17;;;;;;;;;;;17.30;63.20;;;13.07;97.49;95654.09;4963650;28;19944;-47
2022/09/01 00:49:50;;;;;;;;;;;17.30;63.20;;;13.03;99.31;95649.56;4973999;28;19918;-48
2022/09/01 00:52:43;;;;;;;;;;;17.20;63.30;;;13.04;99.31;95651.19;4954702;28;19910;-51
2022/09/01 00:55:24;;;;;;;;;;;17.20;63.50;;;13.03;100.00;95645.00;4955091;28;19914;-49
2022/09/01 00:57:50;;;;;;;;;;;17.20;63.60;;;13.04;100.00;95648.50;4939585;28;20373;-48
2022/09/01 01:00:27;;;;;;;;;;;17.20;63.80;;;13.02;99.46;95650.66;4954667;28;19909;-48
2022/09/01 01:02:59;;;;;;;;;;;17.20;63.80;;;12.99;98.43;95648.53;4954486;28;19910;-44
2022/09/01 01:05:33;;;;;;;;;;;17.10;63.70;;;12.89;97.92;95646.72;4971779;28;19910;-47
2022/09/01 01:08:10;;;;;;;;;;;17.10;64.50;;;12.79;98.12;95647.59;4954832;28;19910;-46
2022/09/01 01:10:40;;;;;;;;;;;17.00;63.60;;;12.73;99.09;95643.34;4955610;28;19909;-47
2022/09/01 01:13:19;;;;;;;;;;;17.00;63.70;;;12.69;99.06;95645.78;4938111;28;20008;-44
2022/09/01 01:15:48;;;;;;;;;;;16.90;63.70;;;12.67;99.43;95650.59;4954352;28;19909;-48
2022/09/01 01:18:15;;;;;;;;;;;16.90;63.80;;;12.64;100.00;95645.78;4954475;28;20063;-48
2022/09/01 01:23:44;;;;;;;;;;;16.80;64.00;;;12.67;100.00;95641.78;4971990;28;19917;-48
2022/09/01 01:26:17;;;;;;;;;;;16.80;64.10;;;12.69;100.00;95645.78;4939194;28;19936;-47
2022/09/01 01:28:44;;;;;;;;;;;16.80;64.30;;;12.67;100.00;95631.88;4966954;28;19916;-49
2022/09/01 01:31:17;;;;;;;;;;;16.80;64.40;;;12.67;100.00;95633.75;4963936;28;19910;-46
2022/09/01 01:33:52;;;;;;;;;;;16.80;64.50;;;12.67;100.00;95633.75;4971817;28;19941;-46
2022/09/01 01:36:35;;;;;;;;;;;16.80;64.60;;;12.67;100.00;95639.91;4954017;28;20380;-46
2022/09/01 01:39:32;;;;;;;;;;;16.80;64.70;;;12.69;100.00;95642.28;4954667;28;19918;-47
2022/09/01 01:42:01;;;;;;;;;;;16.80;64.70;;;12.66;100.00;95643.66;4964266;28;19913;-45
2022/09/01 01:44:30;;;;;;;;;;;16.80;64.70;;;12.63;100.00;95641.53;4954171;28;20400;-44
2022/09/01 01:46:56;;;;;;;;;;;16.80;64.70;;;12.58;100.00;95654.13;4954103;28;19913;-48
2022/09/01 01:49:29;;;;;;;;;;;16.70;64.60;;;12.55;100.00;95646.66;4938258;28;19909;-47
2022/09/01 01:51:56;;;;;;;;;;;16.70;64.60;;;12.56;100.00;95650.91;4970796;28;19914;-48
2022/09/01 01:54:25;;;;;;;;;;;16.70;64.70;;;12.52;100.00;95660.56;4953791;28;19916;-52
2022/09/01 01:56:51;;;;;;;;;;;16.70;64.80;;;12.52;100.00;95660.56;4938491;28;20424;-48
2022/09/01 01:59:18;;;;;;;;;;;16.60;64.70;;;12.48;100.00;95661.09;4953974;28;19989;-46
2022/09/01 02:01:50;;;;;;;;;;;16.60;65.60;;;12.43;100.00;95661.13;4953784;28;19956;-49
2022/09/01 02:04:18;;;;;;;;;;;16.60;64.80;;;12.38;100.00;95663.81;4954885;28;20013;-46
2022/09/01 02:06:49;;;;;;;;;;;16.60;64.80;;;12.34;99.98;95668.09;4973904;28;19920;-46
2022/09/01 02:09:26;;;;;;;;;;;16.50;64.70;;;12.23;99.51;95670.00;4974899;28;19910;-47
2022/09/01 02:11:56;;;;;;;;;;;16.50;64.80;;;12.16;99.26;95666.84;4974187;28;19918;-49
2022/09/01 02:14:25;;;;;;;;;;;16.40;64.70;;;12.08;98.99;95666.59;4974770;28;19988;-50
2022/09/01 02:16:51;;;;;;;;;;;16.40;64.70;;;12.00;99.73;95662.59;4974832;28;19913;-47
2022/09/01 02:19:21;;;;;;;;;;;16.30;64.70;;;11.95;100.00;95670.63;4957251;28;19913;-46
2022/09/01 02:21:53;;;;;;;;;;;16.30;64.70;;;11.96;100.00;95662.34;4957081;28;19941;-50
2022/09/01 02:24:25;;;;;;;;;;;16.30;64.80;;;12.01;100.00;95666.88;4974780;28;20372;-48
2022/09/01 02:26:54;;;;;;;;;;;16.20;64.90;;;12.03;100.00;95662.06;4974147;28;19917;-51
2022/09/01 02:29:25;;;;;;;;;;;16.20;65.10;;;12.04;100.00;95655.66;4974439;28;20404;-49
2022/09/01 02:31:53;;;;;;;;;;;16.20;65.10;;;12.03;100.00;95662.88;4973969;28;19955;-46
2022/09/01 02:34:31;;;;;;;;;;;16.20;65.20;;;12.09;100.00;95668.19;4974439;28;19945;-48
2022/09/01 02:37:08;;;;;;;;;;;16.20;65.30;;;12.19;100.00;95660.97;4953828;28;19917;-46
2022/09/01 02:39:40;;;;;;;;;;;16.20;65.50;;;12.31;100.00;95662.50;4965250;28;20341;-45
2022/09/01 02:42:07;;;;;;;;;;;16.30;65.80;;;12.38;100.00;95658.47;4972927;28;20016;-46
2022/09/01 02:44:39;;;;;;;;;;;16.40;65.90;;;12.49;100.00;95660.03;4981886;28;19910;-45
2022/09/01 02:47:08;;;;;;;;;;;16.50;66.10;;;12.58;100.00;95654.91;4971523;28;20331;-45
2022/09/01 02:49:34;;;;;;;;;;;16.50;66.90;;;12.68;100.00;95656.72;4974194;28;20427;-45
2022/09/01 02:52:01;;;;;;;;;;;16.60;66.20;;;12.76;100.00;95660.72;4973946;28;19963;-44
2022/09/01 02:54:39;;;;;;;;;;;16.70;66.20;;;12.82;100.00;95656.94;4956259;28;19996;-48
2022/09/01 02:57:07;;;;;;;;;;;16.90;66.30;;;12.89;100.00;95662.75;4956547;28;20327;-46
2022/09/01 02:59:36;;;;;;;;;;;16.90;66.30;;;12.93;100.00;95653.09;4974098;28;19932;-44
2022/09/01 03:02:02;;;;;;;;;;;17.00;66.20;;;13.00;100.00;95653.59;4968591;28;19959;-49
2022/09/01 03:04:33;;;;;;;;;;;17.10;66.20;;;13.04;100.00;95654.66;4975471;28;19910;-45
2022/09/01 03:07:07;;;;;;;;;;;17.20;66.20;;;13.11;100.00;95660.47;4975865;28;19909;-45
2022/09/01 03:09:34;;;;;;;;;;;17.20;66.20;;;13.14;100.00;95667.94;4976182;28;19972;-45
2022/09/01 03:12:00;;;;;;;;;;;17.30;66.10;;;13.18;100.00;95662.81;4992655;28;20751;-50
2022/09/01 03:14:30;;;;;;;;;;;17.40;66.10;;;13.24;100.00;95661.72;4975417;28;19987;-46
2022/09/01 03:16:56;;;;;;;;;;;17.40;66.00;;;13.27;100.00;95660.41;4968729;28;20402;-48
2022/09/01 03:19:25;;;;;;;;;;;17.40;66.00;;;13.24;100.00;95656.38;4973607;28;19928;-48
2022/09/01 03:21:51;;;;;;;;;;;17.50;66.00;;;13.24;100.00;95658.25;4956158;28;19916;-48
2022/09/01 03:24:18;;;;;;;;;;;17.50;65.90;;;13.25;99.59;95657.19;4955869;28;19909;-45
2022/09/01 03:26:46;;;;;;;;;;;17.50;65.90;;;13.22;98.49;95657.72;4956312;28;19913;-48
2022/09/01 03:29:14;;;;;;;;;;;17.60;65.90;;;13.25;98.57;95659.88;4956428;28;19910;-50
2022/09/01 03:31:43;;;;;;;;;;;17.60;65.80;;;13.20;97.72;95652.66;4956124;28;19995;-45
2022/09/01 03:34:12;;;;;;;;;;;17.60;65.90;;;13.27;97.49;95652.38;4973096;28;19917;-46
2022/09/01 03:36:38;;;;;;;;;;;17.60;65.90;;;13.27;97.29;95658.50;4973082;28;19910;-48
2022/09/01 03:39:06;;;;;;;;;;;17.60;65.90;;;13.24;96.66;95645.66;4973084;28;19921;-47
2022/09/01 03:41:32;;;;;;;;;;;17.60;66.00;;;13.31;96.73;95650.72;4973002;28;19910;-49
2022/09/01 03:43:58;;;;;;;;;;;17.60;65.90;;;13.35;96.76;95652.56;4955247;28;19909;-44
2022/09/01 03:46:33;;;;;;;;;;;17.60;65.80;;;13.33;96.82;95646.69;4970623;28;20365;-45
2022/09/01 03:49:04;;;;;;;;;;;17.60;65.80;;;13.33;96.35;95644.03;4973125;28;20055;-45
2022/09/01 03:51:30;;;;;;;;;;;17.60;65.80;;;13.36;96.45;95645.34;4956681;28;20279;-45
2022/09/01 03:53:58;;;;;;;;;;;17.60;65.70;;;13.37;96.99;95639.69;4991768;28;19916;-45
2022/09/01 03:56:27;;;;;;;;;;;17.60;65.70;;;13.43;96.82;95651.16;4974939;28;19917;-48
2022/09/01 03:58:57;;;;;;;;;;;17.60;65.70;;;13.41;96.36;95643.44;4974913;28;19975;-45
2022/09/01 04:01:36;;;;;;;;;;;17.70;65.70;;;13.41;96.93;95637.25;4992393;28;19971;-45
2022/09/01 04:04:06;;;;;;;;;;;17.70;65.70;;;13.40;96.49;95639.13;4991780;28;19920;-45
2022/09/01 04:06:32;;;;;;;;;;;17.70;65.70;;;13.42;96.61;95631.63;4974233;28;19916;-45
2022/09/01 04:09:04;;;;;;;;;;;17.70;65.70;;;13.49;96.70;95635.88;4991871;28;19909;-46
2022/09/01 04:11:33;;;;;;;;;;;17.70;65.70;;;13.49;97.24;95641.22;4974634;28;20376;-45
2022/09/01 04:14:00;;;;;;;;;;;17.70;65.70;;;13.50;97.29;95637.44;4974638;28;19909;-45
2022/09/01 04:19:38;;;;;;;;;;;17.70;65.60;;;13.51;97.02;95637.19;4985051;28;19921;-45
2022/09/01 04:22:04;;;;;;;;;;;17.70;65.60;;;13.57;96.60;95644.09;4972303;28;19918;-46
2022/09/01 04:24:32;;;;;;;;;;;17.80;65.70;;;13.55;96.64;95638.22;4971922;28;19909;-46
2022/09/01 04:27:01;;;;;;;;;;;17.80;65.60;;;13.55;96.71;95638.22;4955213;28;19916;-45
2022/09/01 04:29:27;;;;;;;;;;;17.80;65.60;;;13.58;96.46;95632.28;4972003;28;19910;-45
2022/09/01 04:32:08;;;;;;;;;;;17.80;65.60;;;13.60;96.24;95640.03;4955032;28;19914;-46
2022/09/01 04:34:41;;;;;;;;;;;17.80;65.60;;;13.60;96.24;95640.84;4955496;28;19925;-45
2022/09/01 04:37:19;;;;;;;;;;;17.80;65.60;;;13.63;95.85;95640.28;4955105;28;20384;-45
2022/09/01 04:39:56;;;;;;;;;;;17.90;65.60;;;13.65;96.03;95635.44;4939199;28;19945;-49
2022/09/01 04:42:27;;;;;;;;;;;17.90;65.60;;;13.63;96.09;95631.44;4951223;28;20250;-45
2022/09/01 04:45:02;;;;;;;;;;;17.90;65.60;;;13.68;96.01;95630.59;4936774;28;19914;-46
2022/09/01 04:47:40;;;;;;;;;;;17.90;65.50;;;13.72;95.99;95639.66;4971969;28;19910;-45
2022/09/01 04:50:16;;;;;;;;;;;17.90;65.50;;;13.71;95.93;95646.09;4972409;28;19957;-45
2022/09/01 04:52:44;;;;;;;;;;;17.90;65.50;;;13.68;96.09;95644.78;4955393;28;19916;-46
2022/09/01 04:55:16;;;;;;;;;;;17.90;65.50;;;13.71;96.03;95646.09;4954337;28;19917;-47
2022/09/01 04:57:51;;;;;;;;;;;17.90;65.40;;;13.71;96.29;95640.75;4936425;28;20091;-45
2022/09/01 05:00:23;;;;;;;;;;;18.00;65.50;;;13.73;96.08;95641.28;4951414;28;19917;-51
2022/09/01 05:03:13;;;;;;;;;;;18.00;65.50;;;13.73;96.06;95635.91;4964517;28;19948;-46
2022/09/01 05:05:44;;;;;;;;;;;18.00;65.40;;;13.69;96.06;95632.19;4956664;28;19955;-48
2022/09/01 05:08:19;;;;;;;;;;;18.00;65.40;;;13.69;96.27;95640.22;4971959;28;19917;-46
2022/09/01 05:10:51;;;;;;;;;;;18.00;65.40;;;13.72;96.45;95642.34;4971897;28;19909;-49
2022/09/01 05:13:22;;;;;;;;;;;18.00;65.30;;;13.67;96.67;95645.09;4997253;23;19925;-52
2022/09/01 05:16:14;;;;;;;;;;;18.00;65.30;;;13.68;96.64;95636.75;4987870;28;19968;-53
2022/09/01 05:18:47;;;;;;;;;;;18.00;65.30;;;13.68;95.95;95635.97;4970662;28;19924;-54
2022/09/01 05:21:20;;;;;;;;;;;18.10;65.50;;;13.69;96.24;95627.63;4961166;28;19917;-47
2022/09/01 05:23:50;;;;;;;;;;;18.10;65.40;;;13.70;96.22;95633.81;4974921;28;19975;-53
2022/09/01 05:26:29;;;;;;;;;;;18.00;65.30;;;13.72;95.97;95629.75;4982123;28;20334;-50
2022/09/01 05:29:01;;;;;;;;;;;18.10;65.40;;;13.71;95.92;95638.06;4958808;28;19949;-54
2022/09/01 05:31:33;;;;;;;;;;;18.10;65.40;;;13.73;95.79;95627.88;4966702;28;19975;-49
2022/09/01 05:34:02;;;;;;;;;;;18.10;65.30;;;13.77;95.92;95629.69;4969789;28;19909;-51
2022/09/01 05:36:32;;;;;;;;;;;18.20;65.40;;;13.84;95.56;95637.41;4985826;28;19917;-49
2022/09/01 05:38:59;;;;;;;;;;;18.20;65.30;;;13.86;95.38;95636.03;4972429;28;19928;-51
2022/09/01 05:41:28;;;;;;;;;;;18.20;65.20;;;13.84;95.68;95635.50;4972351;28;20039;-51
2022/09/01 05:44:01;;;;;;;;;;;18.30;65.30;;;13.87;95.63;95642.19;4983871;28;20284;-52
2022/09/01 05:46:28;;;;;;;;;;;18.30;65.20;;;13.94;95.37;95642.63;4978347;28;19925;-49
2022/09/01 05:48:59;;;;;;;;;;;18.30;65.10;;;13.98;95.15;95642.91;4977091;28;19925;-47
2022/09/01 05:51:28;;;;;;;;;;;18.40;65.20;;;13.98;95.25;95650.94;4990240;28;20292;-49
2022/09/01 05:53:58;;;;;;;;;;;18.40;65.10;;;14.05;95.17;95646.03;4970619;28;19916;-49
2022/09/01 05:56:30;;;;;;;;;;;18.50;65.10;;;14.05;94.96;95649.50;4988282;28;19964;-50
2022/09/01 05:59:01;;;;;;;;;;;18.50;65.00;;;14.12;94.75;95647.25;4957870;28;20454;-50
2022/09/01 06:01:31;;;;;;;;;;;18.50;65.00;;;14.18;94.49;95647.22;4953752;28;19949;-49
2022/09/01 06:03:58;;;;;;;;;;;18.60;65.00;;;14.22;94.17;95646.34;4991938;28;19909;-49
2022/09/01 06:06:29;;;;;;;;;;;18.60;65.00;;;14.20;93.89;95653.09;4974572;28;19909;-54
2022/09/01 06:08:58;;;;;;;;;;;18.60;64.90;;;14.20;93.87;95653.09;4991784;28;19975;-50
2022/09/01 06:11:31;;;;;;;;;;;18.60;64.90;;;14.24;93.89;95654.13;4976461;28;20325;-50
2022/09/01 06:14:04;;;;;;;;;;;18.70;64.80;;;14.26;93.68;95650.06;4990231;28;20646;-53
2022/09/01 06:16:31;;;;;;;;;;;18.70;64.80;;;14.23;93.77;95647.97;4977966;28;20284;-51
2022/09/01 06:18:59;;;;;;;;;;;18.70;64.70;;;14.31;93.43;95654.56;4973976;28;19913;-48
2022/09/01 06:21:27;;;;;;;;;;;18.80;64.70;;;14.35;93.27;95653.72;4955069;28;19909;-51
2022/09/01 06:23:57;;;;;;;;;;;18.80;64.60;;;14.38;93.27;95660.38;4990164;28;20450;-49
2022/09/01 06:26:33;;;;;;;;;;;18.90;64.60;;;14.42;92.91;95660.63;4965425;28;19983;-51
2022/09/01 06:29:14;;;;;;;;;;;18.90;64.60;;;14.51;92.54;95661.59;4992293;28;19913;-51
2022/09/01 06:31:41;;;;;;;;;;;19.00;64.50;;;14.54;92.20;95661.81;4976994;28;20422;-51
2022/09/01 06:34:16;;;;;;;;;;;19.10;64.40;;;14.60;91.87;95667.91;4989038;28;20364;-52
2022/09/01 06:36:44;;;;;;;;;;;19.10;64.30;;;14.66;91.75;95666.75;4974356;28;19929;-51
2022/09/01 06:39:18;;;;;;;;;;;19.20;64.30;;;14.70;91.73;95664.31;4957399;28;19913;-54
2022/09/01 06:41:51;;;;;;;;;;;19.20;64.20;;;14.66;91.21;95669.44;4957799;28;19964;-51
2022/09/01 06:44:21;;;;;;;;;;;19.20;64.00;;;14.68;91.38;95672.63;4974439;28;19910;-48
2022/09/01 06:46:58;;;;;;;;;;;19.30;64.00;;;14.75;91.05;95670.38;4974158;28;20348;-50
2022/09/01 06:49:31;;;;;;;;;;;19.30;63.80;;;14.80;90.65;95678.38;4956902;28;19997;-50
2022/09/01 06:52:04;;;;;;;;;;;19.40;63.80;;;14.84;90.24;95678.59;4973448;28;19914;-47
2022/09/01 06:54:34;;;;;;;;;;;19.50;63.80;;;14.91;90.38;95678.22;4956789;28;19910;-48
2022/09/01 06:57:03;;;;;;;;;;;19.60;63.70;;;14.94;89.17;95681.13;4973867;28;19913;-47
2022/09/01 06:59:30;;;;;;;;;;;19.60;63.60;;;14.99;89.41;95683.75;4973701;28;19920;-50
2022/09/01 07:02:02;;;;;;;;;;;19.70;63.50;;;15.07;89.58;95687.66;4973413;28;19937;-49
2022/09/01 07:04:30;;;;;;;;;;;19.80;63.50;;;15.08;89.26;95681.22;4956843;28;19940;-55
2022/09/01 07:07:08;;;;;;;;;;;19.80;63.30;;;15.12;88.50;95687.59;4964625;28;19990;-50
2022/09/01 07:09:34;;;;;;;;;;;19.90;63.30;;;15.16;87.89;95691.28;4993275;28;19916;-48
2022/09/01 07:12:02;;;;;;;;;;;19.90;63.10;;;15.19;87.23;95689.91;4955301;28;19914;-49
2022/09/01 07:14:29;;;;;;;;;;;20.00;63.80;;;15.24;87.17;95695.19;4972510;28;19910;-49
2022/09/01 07:16:58;;;;;;;;;;;20.00;63.00;;;15.32;87.48;95696.41;4991762;28;19909;-49
2022/09/01 07:19:24;;;;;;;;;;;20.00;62.90;;;15.33;86.47;95701.50;4975291;28;19956;-48
2022/09/01 07:21:56;;;;;;;;;;;20.10;62.80;;;15.38;86.42;95706.00;4992496;28;20061;-50
2022/09/01 07:24:22;;;;;;;;;;;20.10;62.80;;;15.47;86.72;95701.56;4992832;28;19909;-49
2022/09/01 07:26:49;;;;;;;;;;;20.20;62.70;;;15.55;86.88;95702.78;4975538;28;19913;-49
2022/09/01 07:29:24;;;;;;;;;;;20.30;62.60;;;15.59;86.53;95701.91;4992927;28;20074;-53
2022/09/01 07:31:56;;;;;;;;;;;20.40;62.50;;;15.64;86.44;95701.03;4992019;28;20260;-49
2022/09/01 07:34:32;;;;;;;;;;;20.40;62.30;;;15.72;86.25;95705.75;4975308;28;19913;-54
2022/09/01 07:36:58;;;;;;;;;;;20.50;62.20;;;15.68;85.40;95702.84;4959036;28;20097;-49
2022/09/01 07:39:33;;;;;;;;;;;20.60;62.10;;;15.76;85.52;95698.69;4975257;28;19940;-49
2022/09/01 07:42:09;;;;;;;;;;;20.70;61.90;;;15.86;85.95;95705.81;4974442;28;20261;-49
2022/09/01 07:44:37;;;;;;;;;;;20.90;61.70;;;16.04;85.44;95706.81;4992419;28;19909;-48
2022/09/01 07:47:08;;;;;;;;;;;21.00;61.50;;;16.13;83.91;95700.47;4975095;28;20362;-50
2022/09/01 07:49:36;;;;;;;;;;;21.20;61.30;;;16.23;82.66;95712.13;4973299;28;19956;-54
2022/09/01 07:52:08;;;;;;;;;;;21.50;61.10;;;16.24;82.02;95702.97;4972295;28;19916;-51
2022/09/01 07:54:36;;;;;;;;;;;21.60;61.50;;;16.37;81.91;95707.56;4980602;28;19915;-52
2022/09/01 07:57:03;;;;;;;;;;;21.80;60.50;;;16.52;81.27;95712.66;4980160;28;19946;-49
2022/09/01 07:59:30;;;;;;;;;;;22.00;60.20;;;16.73;80.59;95701.47;4981522;28;19913;-50
2022/09/01 08:01:59;;;;;;;;;;;22.20;60.00;;;16.86;79.63;95709.56;4988755;28;19909;-49
2022/09/01 08:04:28;;;;;;;;;;;22.40;59.90;;;16.91;78.74;95705.19;4987185;28;19978;-54
2022/09/01 08:06:57;;;;;;;;;;;22.50;59.60;;;16.94;77.59;95701.88;4992745;28;19916;-51
2022/09/01 08:09:23;;;;;;;;;;;22.60;59.30;;;17.09;77.54;95706.94;4997896;28;20011;-56
2022/09/01 08:11:49;;;;;;;;;;;22.70;59.10;;;17.20;76.99;95707.50;4984950;28;19999;-54
2022/09/01 08:14:14;;;;;;;;;;;22.90;59.00;;;17.32;77.29;95697.00;4992881;28;19944;-54
2022/09/01 08:16:40;;;;;;;;;;;23.00;58.90;;;17.49;75.84;95707.13;4975736;28;19909;-50
2022/09/01 08:19:09;;;;;;;;;;;23.20;58.80;;;17.25;74.31;95704.69;4946766;28;20062;-55
2022/09/01 08:21:35;;;;;;;;;;;23.30;58.40;;;17.33;75.77;95706.69;4973838;28;19910;-49
2022/09/01 08:24:01;;;;;;;;;;;23.30;58.20;;;17.45;75.41;95715.00;4991810;28;19916;-51
2022/09/01 08:26:36;;;;;;;;;;;23.40;58.20;;;17.58;73.51;95708.78;4974220;28;19916;-53
2022/09/01 08:29:02;;;;;;;;;;;23.40;58.00;;;17.65;73.72;95708.34;4991855;28;19913;-52
2022/09/01 08:31:36;;;;;;;;;;;23.40;57.90;;;17.76;73.25;95712.38;4973782;28;20388;-52
2022/09/01 08:34:04;;;;;;;;;;;23.40;57.90;;;17.74;73.30;95714.59;4991748;28;19909;-50
2022/09/01 08:36:31;;;;;;;;;;;23.50;57.90;;;17.78;71.57;95714.81;4974009;28;20395;-53
2022/09/01 08:39:00;;;;;;;;;;;23.50;57.70;;;17.79;71.99;95706.41;4973988;28;19921;-50
2022/09/01 08:41:50;;;;;;;;;;;23.60;57.60;;;17.80;72.90;95712.59;4991016;28;19984;-50
2022/09/01 08:44:37;;;;;;;;;;;23.60;57.50;;;17.62;72.65;95719.72;4991499;28;19909;-53
2022/09/01 08:47:09;;;;;;;;;;;23.50;57.40;;;17.64;73.85;95724.81;4990480;28;19952;-54
2022/09/01 08:49:38;;;;;;;;;;;23.40;57.30;;;17.77;73.43;95716.69;4958207;28;19909;-51
2022/09/01 08:52:49;;;;;;;;;;;23.40;57.30;;;17.67;72.16;95719.59;4973420;28;20461;-50
2022/09/01 08:55:40;;;;;;;;;;;23.40;57.20;;;17.80;72.16;95712.59;4933262;28;19909;-54
2022/09/01 08:58:17;;;;;;;;;;;23.60;57.00;;;17.84;72.71;95708.19;4972517;28;19964;-51
2022/09/01 09:01:03;;;;;;;;;;;23.80;56.70;;;17.66;72.65;95717.22;4972723;28;19909;-52
2022/09/01 09:03:48;;;;;;;;;;;23.90;56.50;;;17.78;71.78;95714.81;4974608;28;19953;-51
2022/09/01 09:06:27;;;;;;;;;;;23.90;56.30;;;17.78;71.77;95715.59;4991266;28;19916;-51
2022/09/01 09:08:58;;;;;;;;;;;23.90;56.30;;;17.90;72.49;95716.94;4991147;28;20399;-49
2022/09/01 09:12:14;;;;;;;;;;;24.00;56.20;;;17.90;71.20;95715.03;4973503;28;19910;-49
2022/09/01 09:15:21;;;;;;;;;;;24.10;56.10;;;17.88;70.46;95716.44;4992504;28;19924;-49
2022/09/01 09:17:58;;;;;;;;;;;24.00;55.90;;;17.96;70.80;95713.81;4995239;28;19913;-48
2022/09/01 09:20:27;;;;;;;;;;;23.90;55.70;;;17.87;70.78;95712.97;4978445;28;19917;-49
2022/09/01 09:22:54;;;;;;;;;;;24.10;55.60;;;18.08;70.22;95715.13;4976953;28;19909;-49
2022/09/01 09:25:30;;;;;;;;;;;24.20;55.40;;;18.26;69.52;95717.59;4958156;28;19916;-49
2022/09/01 09:27:55;;;;;;;;;;;24.50;55.10;;;18.33;69.45;95717.16;4987177;28;20470;-50
2022/09/01 09:30:31;;;;;;;;;;;24.80;54.80;;;18.56;68.27;95719.81;4980638;28;20003;-49
2022/09/01 09:33:29;;;;;;;;;;;25.10;54.70;;;18.62;67.75;95713.97;4990577;28;20020;-49
2022/09/01 09:36:28;;;;;;;;;;;25.20;54.50;;;18.75;66.82;95706.09;4971682;28;20445;-47
2022/09/01 09:39:08;;;;;;;;;;;25.30;54.30;;;18.58;66.61;95712.97;4975143;28;19914;-47
2022/09/01 09:41:36;;;;;;;;;;;25.40;54.10;;;18.74;66.41;95710.69;4974483;28;19913;-47
2022/09/01 09:44:29;;;;;;;;;;;25.40;53.90;;;18.89;66.21;95720.25;4969793;28;19957;-49
2022/09/01 09:46:58;;;;;;;;;;;25.50;53.70;;;19.05;64.98;95709.78;4961401;28;19976;-48
2022/09/01 09:49:32;;;;;;;;;;;25.80;53.40;;;19.38;64.48;95710.16;4994736;28;20220;-51
2022/09/01 09:52:07;;;;;;;;;;;26.10;53.20;;;19.41;64.81;95704.13;4993862;28;20012;-49
2022/09/01 09:54:36;;;;;;;;;;;26.50;52.80;;;19.32;64.40;95700.63;4976771;28;19913;-51
2022/09/01 09:57:08;;;;;;;;;;;26.70;52.50;;;19.48;63.90;95699.03;4994161;28;20008;-51
2022/09/01 09:59:52;;;;;;;;;;;27.00;52.10;;;20.05;62.18;95700.72;4994054;28;19991;-47
2022/09/01 10:02:33;;;;;;;;;;;27.30;51.90;;;20.05;61.23;95703.44;4993636;28;19952;-47
2022/09/01 10:05:45;;;;;;;;;;;27.50;52.20;;;20.35;61.30;95696.19;4994129;28;19920;-51
2022/09/01 10:08:26;;;;;;;;;;;27.70;51.30;;;20.17;60.76;95700.06;4977063;28;20287;-49
2022/09/01 10:10:55;;;;;;;;;;;27.80;51.00;;;20.41;60.55;95699.50;4993939;28;19909;-53
2022/09/01 10:13:34;;;;;;;;;;;27.80;50.80;;;20.78;59.25;95695.25;4993293;28;19918;-50
2022/09/01 10:16:29;;;;;;;;;;;28.00;50.50;;;20.71;58.43;95693.03;4994050;28;19909;-49
2022/09/01 10:18:59;;;;;;;;;;;28.20;50.20;;;20.81;58.82;95689.16;4992392;28;19917;-49
2022/09/01 10:21:39;;;;;;;;;;;28.30;50.00;;;20.67;58.13;95691.31;4976376;28;19923;-51
2022/09/01 10:24:30;;;;;;;;;;;28.40;50.30;;;20.93;57.63;95691.16;4976824;28;19971;-49
2022/09/01 10:27:36;;;;;;;;;;;28.50;49.40;;;21.30;56.63;95688.69;4992990;28;20105;-48
2022/09/01 10:30:23;;;;;;;;;;;28.60;49.20;;;21.48;55.91;95682.81;4979740;28;19910;-47
2022/09/01 10:32:58;;;;;;;;;;;28.80;48.90;;;20.37;58.30;95682.31;4976264;28;20372;-50
2022/09/01 10:35:38;;;;;;;;;;;28.80;48.10;;;20.51;59.08;95678.31;4957484;28;19917;-50
2022/09/01 10:38:16;;;;;;;;;;;28.80;47.70;;;21.01;57.95;95685.69;4973840;28;19913;-51
2022/09/01 10:40:49;;;;;;;;;;;28.80;47.60;;;21.43;57.70;95680.31;4981365;28;20300;-50
2022/09/01 10:43:26;;;;;;;;;;;29.00;47.60;;;21.61;56.30;95686.38;4973907;28;19909;-54
2022/09/01 10:45:52;;;;;;;;;;;29.70;47.40;;;21.75;56.15;95686.13;4973972;28;19918;-53
2022/09/01 10:48:29;;;;;;;;;;;30.00;47.00;;;22.09;54.57;95676.03;4957011;28;20051;-49
2022/09/01 10:51:12;;;;;;;;;;;30.00;47.00;;;22.14;54.32;95681.25;4956617;28;20487;-52
2022/09/01 10:54:29;;;;;;;;;;;29.90;46.90;;;22.30;54.66;95679.47;4974715;28;19932;-52
2022/09/01 10:57:00;;;;;;;;;;;29.80;46.90;;;22.32;53.69;95681.88;4953146;28;19964;-51
2022/09/01 10:59:29;;;;;;;;;;;29.70;46.80;;;21.86;54.87;95676.41;4963520;28;19917;-49
2022/09/01 11:02:15;;;;;;;;;;;29.50;47.40;;;21.10;55.53;95679.44;4959338;28;20315;-51
2022/09/01 11:04:43;;;;;;;;;;;29.20;46.60;;;20.89;55.70;95672.06;4993463;28;19909;-51
2022/09/01 11:07:31;;;;;;;;;;;29.00;46.40;;;20.42;57.90;95666.72;4975613;28;19956;-50
2022/09/01 11:10:26;;;;;;;;;;;28.70;46.30;;;20.58;56.65;95668.91;4992233;28;20027;-53
2022/09/01 11:13:34;;;;;;;;;;;28.30;46.50;;;20.44;58.00;95669.91;4993095;23;19921;-49
2022/09/01 11:16:30;;;;;;;;;;;28.10;46.60;;;20.51;57.91;95672.91;4965033;28;19983;-50
2022/09/01 11:19:42;;;;;;;;;;;28.00;46.70;;;20.64;58.22;95673.00;4973731;28;19918;-55
2022/09/01 11:22:20;;;;;;;;;;;28.30;46.70;;;21.42;54.79;95667.09;4971045;28;19909;-49
2022/09/01 11:25:33;;;;;;;;;;;28.90;46.40;;;21.95;54.40;95655.44;4991685;28;20043;-55
2022/09/01 11:28:09;;;;;;;;;;;29.30;46.30;;;22.37;51.42;95665.34;4984677;28;19955;-53
2022/09/01 11:31:07;;;;;;;;;;;29.70;46.20;;;22.09;51.76;95663.28;4976168;28;19916;-53
2022/09/01 11:34:12;;;;;;;;;;;30.30;45.70;;;22.01;53.31;95661.44;4992620;28;19913;-51
2022/09/01 11:36:47;;;;;;;;;;;30.40;44.90;;;22.20;53.41;95652.81;4975111;28;19909;-49
2022/09/01 11:39:18;;;;;;;;;;;30.40;44.70;;;22.47;52.81;95656.78;4991495;28;19918;-49
2022/09/01 11:42:13;;;;;;;;;;;30.40;44.50;;;22.42;51.38;95654.28;4992313;28;20326;-47
2022/09/01 11:45:02;;;;;;;;;;;30.20;44.40;;;22.42;51.35;95650.78;4992620;28;19955;-52
2022/09/01 11:47:49;;;;;;;;;;;30.00;44.40;;;22.72;48.97;95635.03;4961791;28;19917;-49
2022/09/01 11:50:25;;;;;;;;;;;30.30;44.30;;;22.93;49.07;95651.22;4959655;28;19916;-50
2022/09/01 11:53:05;;;;;;;;;;;30.40;44.10;;;23.13;50.50;95644.88;4949652;28;19914;-50